createdAt,value
2022-11-26T00:00:39.721Z,6.88
2022-11-26T00:03:11.579Z,6.84
2022-11-26T00:05:42.006Z,6.78
2022-11-26T00:08:18.177Z,6.91
2022-11-26T00:10:51.909Z,6.58
2022-11-26T00:13:25.750Z,6.77
2022-11-26T00:15:55.749Z,6.68
2022-11-26T00:18:27.180Z,6.08
2022-11-26T00:21:01.514Z,6.57
2022-11-26T00:23:36.486Z,6.31
2022-11-26T00:26:19.809Z,6.46
2022-11-26T00:28:56.033Z,6.12
2022-11-26T00:31:25.566Z,6.30
2022-11-26T00:33:58.487Z,6.53
2022-11-26T00:36:31.751Z,6.35
2022-11-26T00:39:04.211Z,6.32
2022-11-26T00:41:38.556Z,5.29
2022-11-26T00:44:19.279Z,6.04
2022-11-26T00:46:55.117Z,5.91
2022-11-26T00:49:25.557Z,5.97
2022-11-26T00:51:54.002Z,5.96
2022-11-26T00:54:23.667Z,5.84
2022-11-26T00:56:53.778Z,5.45
2022-11-26T00:59:24.790Z,5.45
2022-11-26T01:01:55.414Z,5.67
2022-11-26T01:04:30.767Z,5.61
2022-11-26T01:07:03.056Z,5.12
2022-11-26T01:09:34.379Z,5.55
2022-11-26T01:12:11.888Z,5.55
2022-11-26T01:14:41.466Z,5.34
2022-11-26T01:17:18.996Z,5.56
2022-11-26T01:19:49.168Z,5.47
2022-11-26T01:22:23.713Z,5.57
2022-11-26T01:24:51.704Z,5.60
2022-11-26T01:27:22.967Z,5.57
2022-11-26T01:29:51.564Z,5.71
2022-11-26T01:32:26.554Z,5.70
2022-11-26T01:34:57.371Z,5.66
2022-11-26T01:37:26.123Z,5.53
2022-11-26T01:39:54.553Z,5.88
2022-11-26T01:42:34.633Z,5.81
2022-11-26T01:45:02.848Z,5.94
2022-11-26T01:47:38.220Z,5.91
2022-11-26T01:51:06.102Z,5.84
2022-11-26T01:53:46.030Z,5.65
2022-11-26T01:56:22.439Z,5.59
2022-11-26T01:58:59.134Z,5.53
2022-11-26T02:01:30.472Z,5.37
2022-11-26T02:04:11.618Z,5.51
2022-11-26T02:06:40.823Z,5.46
2022-11-26T02:09:10.793Z,4.87
2022-11-26T02:11:40.986Z,5.50
2022-11-26T02:14:20.058Z,5.61
2022-11-26T02:17:03.099Z,5.52
2022-11-26T02:20:18.950Z,5.57
2022-11-26T02:23:12.254Z,5.42
2022-11-26T02:26:09.499Z,5.56
2022-11-26T02:28:56.093Z,5.42
2022-11-26T02:31:33.233Z,5.26
2022-11-26T02:34:11.436Z,4.71
2022-11-26T02:36:43.690Z,5.20
2022-11-26T02:39:16.391Z,5.16
2022-11-26T02:41:46.633Z,5.16
2022-11-26T02:44:17.265Z,5.03
2022-11-26T02:46:50.599Z,4.79
2022-11-26T02:49:24.734Z,4.94
2022-11-26T02:52:21.856Z,4.80
2022-11-26T02:54:51.550Z,4.75
2022-11-26T02:57:24.662Z,4.65
2022-11-26T02:59:52.943Z,4.46
2022-11-26T03:02:27.422Z,4.48
2022-11-26T03:04:59.029Z,4.40
2022-11-26T03:07:33.612Z,4.14
2022-11-26T03:10:02.786Z,4.24
2022-11-26T03:12:31.342Z,4.19
2022-11-26T03:14:59.142Z,4.13
2022-11-26T03:17:28.203Z,3.97
2022-11-26T03:19:58.803Z,3.79
2022-11-26T03:42:21.096Z,3.19
2022-11-26T03:49:39.186Z,3.18
2022-11-26T03:52:08.674Z,3.16
2022-11-26T03:54:36.906Z,3.13
2022-11-26T03:57:05.056Z,3.06
2022-11-26T03:59:32.791Z,3.02
2022-11-26T04:02:00.666Z,2.95
2022-11-26T04:04:29.079Z,2.95
2022-11-26T04:06:58.266Z,2.33
2022-11-26T04:09:26.009Z,2.83
2022-11-26T04:11:53.777Z,2.84
2022-11-26T04:14:21.520Z,2.77
2022-11-26T04:16:49.347Z,2.69
2022-11-26T04:19:17.244Z,2.75
2022-11-26T04:22:12.259Z,2.69
2022-11-26T04:25:36.292Z,2.62
2022-11-26T04:28:27.383Z,2.42
2022-11-26T04:30:56.648Z,2.46
2022-11-26T04:33:33.472Z,2.49
2022-11-26T04:36:11.196Z,2.21
2022-11-26T04:38:54.427Z,2.31
2022-11-26T04:41:28.978Z,2.36
2022-11-26T04:46:49.580Z,2.28
2022-11-26T04:49:18.090Z,2.18
2022-11-26T04:51:45.815Z,2.20
2022-11-26T04:54:13.538Z,2.18
2022-11-26T04:56:41.904Z,2.04
2022-11-26T05:03:14.980Z,2.00
2022-11-26T05:08:45.056Z,1.81
2022-11-26T05:11:31.867Z,1.96
2022-11-26T05:14:18.407Z,1.84
2022-11-26T05:16:56.911Z,1.88
2022-11-26T05:22:38.759Z,1.81
2022-11-26T05:25:07.377Z,1.73
2022-11-26T05:27:35.290Z,1.55
2022-11-26T05:30:03.194Z,1.75
2022-11-26T05:32:31.067Z,1.58
2022-11-26T05:35:08.834Z,1.70
2022-11-26T05:37:49.975Z,1.60
2022-11-26T05:40:24.225Z,1.61
2022-11-26T05:42:55.247Z,1.24
2022-11-26T05:45:38.991Z,1.32
2022-11-26T05:54:56.765Z,1.41
2022-11-26T05:57:24.527Z,1.30
2022-11-26T06:03:01.387Z,1.24
2022-11-26T06:05:55.983Z,1.31
2022-11-26T06:11:27.970Z,1.24
2022-11-26T06:14:07.422Z,1.31
2022-11-26T06:16:36.485Z,1.30
2022-11-26T06:19:13.307Z,1.29
2022-11-26T06:25:26.667Z,1.23
2022-11-26T06:32:36.386Z,1.02
2022-11-26T06:35:05.460Z,1.09
2022-11-26T06:37:48.514Z,0.89
2022-11-26T06:43:58.039Z,1.01
2022-11-26T06:46:33.216Z,0.98
2022-11-26T06:49:11.306Z,0.83
2022-11-26T06:51:44.349Z,0.94
2022-11-26T06:54:16.225Z,0.99
2022-11-26T06:57:29.321Z,1.01
2022-11-26T07:00:38.743Z,0.99
2022-11-26T07:06:38.445Z,0.85
2022-11-26T07:09:35.943Z,1.00
2022-11-26T07:16:01.059Z,0.87
2022-11-26T07:19:43.685Z,1.11
2022-11-26T07:23:26.976Z,1.24
2022-11-26T08:06:25.042Z,3.96
2022-11-26T08:08:56.713Z,4.10
2022-11-26T08:11:27.379Z,3.99
2022-11-26T08:14:02.907Z,4.29
2022-11-26T08:16:32.255Z,4.46
2022-11-26T08:24:30.852Z,4.82
2022-11-26T08:27:09.661Z,4.97
2022-11-26T08:30:02.996Z,5.04
2022-11-26T08:32:38.882Z,5.10
2022-11-26T08:35:07.537Z,5.39
2022-11-26T08:37:35.266Z,5.56
2022-11-26T08:40:05.895Z,6.19
2022-11-26T08:43:06.715Z,7.00
2022-11-26T09:07:11.477Z,11.01
2022-11-26T09:14:49.553Z,12.02
2022-11-26T09:17:33.609Z,12.66
2022-11-26T09:20:24.600Z,12.83
2022-11-26T09:44:12.585Z,12.71
2022-11-26T09:48:14.203Z,12.02
2022-11-26T09:54:31.007Z,11.88
2022-11-26T10:05:22.164Z,12.67
2022-11-26T10:08:50.664Z,12.21
2022-11-26T10:15:40.765Z,11.45
2022-11-26T10:18:22.753Z,11.48
2022-11-26T10:25:48.137Z,11.50
2022-11-26T10:28:38.487Z,11.26
2022-11-26T10:32:15.245Z,10.93
2022-11-26T10:49:58.476Z,11.32
2022-11-26T10:53:25.070Z,11.03
2022-11-26T10:57:06.326Z,10.93
2022-11-26T11:10:15.492Z,11.29
2022-11-26T11:17:29.680Z,11.61
2022-11-26T11:38:35.880Z,12.09
2022-11-26T11:41:26.708Z,12.21
2022-11-26T11:44:15.560Z,12.15
2022-11-26T11:47:36.736Z,11.63
2022-11-26T11:50:17.445Z,11.05
2022-11-26T11:53:10.255Z,10.73
2022-11-26T11:55:54.232Z,11.53
2022-11-26T11:58:59.890Z,11.10
2022-11-26T12:01:47.633Z,10.82
2022-11-26T12:04:27.529Z,10.92
2022-11-26T12:07:16.881Z,9.09
2022-11-26T12:09:53.837Z,10.45
2022-11-26T12:12:42.622Z,9.44
2022-11-26T12:15:28.661Z,9.68
2022-11-26T12:18:07.811Z,10.20
2022-11-26T12:20:42.181Z,10.14
2022-11-26T12:23:27.705Z,8.38
2022-11-26T12:26:07.483Z,9.69
2022-11-26T12:28:58.858Z,7.55
2022-11-26T12:31:43.757Z,10.18
2022-11-26T12:39:43.283Z,10.15
2022-11-26T12:42:49.386Z,8.74
2022-11-26T12:49:34.366Z,8.22
2022-11-26T12:52:30.549Z,9.52
2022-11-26T12:55:18.920Z,9.90
2022-11-26T13:02:12.076Z,10.08
2022-11-26T13:10:14.896Z,7.61
2022-11-26T13:13:45.751Z,10.08
2022-11-26T13:17:16.463Z,8.89
2022-11-26T13:20:12.044Z,7.31
2022-11-26T13:30:45.460Z,8.63
2022-11-26T13:33:40.492Z,8.28
2022-11-26T13:36:27.811Z,8.12
2022-11-26T13:39:06.805Z,8.08
2022-11-26T13:42:01.893Z,9.65
2022-11-26T13:49:22.827Z,7.72
2022-11-26T13:51:55.649Z,7.80
2022-11-26T13:54:28.839Z,9.64
2022-11-26T13:57:20.973Z,9.66
2022-11-26T14:08:52.337Z,9.48
2022-11-26T14:11:57.778Z,9.34
2022-11-26T14:14:39.512Z,8.70
2022-11-26T14:21:14.153Z,8.60
2022-11-26T14:23:48.876Z,9.13
2022-11-26T14:26:20.084Z,8.93
2022-11-26T14:28:48.657Z,8.86
2022-11-26T14:31:21.809Z,8.80
2022-11-26T14:33:52.704Z,8.92
2022-11-26T14:36:25.652Z,8.56
2022-11-26T14:47:19.615Z,8.70
2022-11-26T14:53:23.819Z,8.62
2022-11-26T14:56:26.245Z,8.55
2022-11-26T14:59:15.280Z,8.32
2022-11-26T15:12:40.493Z,6.35
2022-11-26T15:15:41.601Z,7.82
2022-11-26T15:19:05.740Z,7.63
2022-11-26T15:22:19.473Z,7.47
2022-11-26T15:25:13.786Z,7.26
2022-11-26T15:28:01.993Z,7.04
2022-11-26T15:30:50.807Z,6.50
2022-11-26T15:36:23.619Z,6.37
2022-11-26T15:39:39.330Z,6.76
2022-11-26T15:42:28.302Z,6.63
2022-11-26T15:45:02.538Z,6.37
2022-11-26T15:47:31.236Z,6.41
2022-11-26T15:50:03.928Z,6.23
2022-11-26T15:59:47.356Z,5.80
2022-11-26T16:02:30.104Z,3.79
2022-11-26T16:08:51.915Z,5.04
2022-11-26T16:11:24.829Z,4.83
2022-11-26T16:13:53.695Z,5.08
2022-11-26T16:16:52.114Z,3.59
2022-11-26T16:19:37.499Z,5.54
2022-11-26T16:23:14.824Z,3.44
2022-11-26T16:26:32.717Z,5.37
2022-11-26T16:29:08.940Z,4.59
2022-11-26T16:32:05.028Z,4.66
2022-11-26T16:34:38.712Z,4.84
2022-11-26T16:37:49.348Z,4.64
2022-11-26T16:40:38.911Z,3.36
2022-11-26T16:43:53.187Z,3.39
2022-11-26T16:46:58.797Z,4.67
2022-11-26T16:49:48.969Z,3.35
2022-11-26T16:52:32.799Z,4.81
2022-11-26T16:55:08.139Z,5.50
2022-11-26T16:58:21.120Z,4.62
2022-11-26T17:01:07.961Z,4.96
2022-11-26T17:03:52.709Z,3.77
2022-11-26T17:07:00.036Z,3.89
2022-11-26T17:09:58.144Z,3.80
2022-11-26T17:15:33.949Z,3.80
2022-11-26T17:18:41.376Z,5.54
2022-11-26T17:21:54.369Z,5.51
2022-11-26T17:24:32.076Z,4.83
2022-11-26T17:27:01.953Z,5.45
2022-11-26T17:29:29.810Z,5.43
2022-11-26T17:31:57.567Z,5.38
2022-11-26T17:34:25.307Z,5.35
2022-11-26T17:36:59.240Z,5.34
2022-11-26T17:39:27.825Z,5.31
2022-11-26T17:41:55.725Z,5.31
2022-11-26T17:44:23.565Z,5.29
2022-11-26T17:47:15.809Z,5.26
2022-11-26T17:49:39.251Z,5.19
2022-11-26T17:52:08.501Z,5.13
2022-11-26T17:54:36.277Z,5.10
2022-11-26T17:57:04.204Z,4.76
2022-11-26T17:59:32.473Z,5.04
2022-11-26T18:02:01.664Z,4.94
2022-11-26T18:04:29.547Z,4.98
2022-11-26T18:07:02.029Z,4.95
2022-11-26T18:09:31.176Z,4.93
2022-11-26T18:12:00.177Z,4.92
2022-11-26T18:14:28.089Z,4.89
2022-11-26T18:16:55.994Z,4.86
2022-11-26T18:19:24.378Z,4.60
2022-11-26T18:21:52.467Z,4.79
2022-11-26T18:24:20.408Z,4.73
2022-11-26T18:26:49.450Z,4.46
2022-11-26T18:29:17.231Z,4.64
2022-11-26T18:31:44.967Z,4.60
2022-11-26T18:34:13.093Z,4.60
2022-11-26T18:36:41.119Z,4.53
2022-11-26T18:39:08.892Z,4.47
2022-11-26T18:41:36.786Z,4.40
2022-11-26T18:44:05.855Z,4.35
2022-11-26T18:46:33.639Z,4.33
2022-11-26T18:49:01.410Z,4.32
2022-11-26T18:51:29.409Z,4.30
2022-11-26T18:53:57.153Z,4.30
2022-11-26T18:56:25.379Z,4.26
2022-11-26T18:58:53.260Z,4.25
2022-11-26T19:01:25.303Z,4.23
2022-11-26T19:03:53.805Z,4.00
2022-11-26T19:06:25.217Z,4.00
2022-11-26T19:08:58.247Z,4.15
2022-11-26T19:11:27.652Z,4.14
2022-11-26T19:13:57.194Z,4.13
2022-11-26T19:16:28.673Z,4.13
2022-11-26T19:18:56.754Z,4.09
2022-11-26T19:21:26.668Z,4.10
2022-11-26T19:23:56.397Z,4.10
2022-11-26T19:26:25.008Z,4.09
2022-11-26T19:28:53.254Z,4.07
2022-11-26T19:31:24.033Z,4.02
2022-11-26T19:33:57.792Z,3.97
2022-11-26T19:36:26.426Z,3.70
2022-11-26T19:38:59.923Z,3.42
2022-11-26T19:41:29.309Z,3.74
2022-11-26T19:43:57.502Z,3.75
2022-11-26T19:46:26.529Z,3.70
2022-11-26T19:48:56.457Z,3.16
2022-11-26T19:51:26.233Z,3.46
2022-11-26T19:53:56.072Z,3.56
2022-11-26T19:56:26.186Z,3.54
2022-11-26T19:58:54.981Z,3.30
2022-11-26T20:01:23.394Z,3.38
2022-11-26T20:03:51.418Z,3.44
2022-11-26T20:06:22.655Z,3.41
2022-11-26T20:08:51.078Z,3.38
2022-11-26T20:11:30.662Z,3.34
2022-11-26T20:13:59.437Z,3.31
2022-11-26T20:16:50.362Z,3.28
2022-11-26T20:20:26.367Z,3.13
2022-11-26T20:23:08.478Z,2.63
2022-11-26T20:25:38.128Z,2.35
2022-11-26T20:28:07.042Z,1.39
2022-11-26T20:30:35.630Z,1.78
2022-11-26T20:33:03.836Z,2.12
2022-11-26T20:35:33.861Z,2.01
2022-11-26T20:38:17.140Z,1.75
2022-11-26T20:40:45.745Z,1.71
2022-11-26T20:43:14.422Z,0.65
2022-11-26T20:45:42.477Z,1.85
2022-11-26T20:48:10.486Z,2.65
2022-11-26T20:50:39.001Z,2.60
2022-11-26T20:53:08.314Z,2.58
2022-11-26T20:55:36.204Z,2.56
2022-11-26T20:58:03.967Z,2.53
2022-11-26T21:00:31.826Z,1.74
2022-11-26T21:03:00.796Z,2.54
2022-11-26T21:05:28.567Z,2.55
2022-11-26T21:07:56.347Z,2.53
2022-11-26T21:10:28.706Z,2.50
2022-11-26T21:12:56.679Z,2.47
2022-11-26T21:15:24.411Z,2.46
2022-11-26T21:17:52.718Z,2.36
2022-11-26T21:20:20.684Z,2.40
2022-11-26T21:22:48.400Z,2.36
2022-11-26T21:25:16.411Z,2.34
2022-11-26T21:27:45.487Z,2.31
2022-11-26T21:30:14.236Z,2.29
2022-11-26T21:32:42.066Z,2.26
2022-11-26T21:35:11.067Z,2.12
2022-11-26T21:37:38.773Z,2.19
2022-11-26T21:40:07.645Z,2.15
2022-11-26T21:42:35.479Z,2.11
2022-11-26T21:45:05.190Z,2.10
2022-11-26T21:47:32.926Z,2.07
2022-11-26T21:50:00.848Z,2.03
2022-11-26T21:52:28.780Z,2.01
2022-11-26T21:54:59.618Z,1.97
2022-11-26T21:57:31.654Z,1.88
2022-11-26T21:59:59.440Z,1.88
2022-11-26T22:02:28.820Z,1.85
2022-11-26T22:04:56.745Z,0.50
2022-11-26T22:07:24.700Z,1.77
2022-11-26T22:09:52.610Z,1.56
2022-11-26T22:12:20.455Z,1.46
2022-11-26T22:14:48.354Z,1.64
2022-11-26T22:17:16.157Z,1.59
2022-11-26T22:19:45.283Z,-0.18
2022-11-26T22:22:13.047Z,-1.46
2022-11-26T22:24:40.918Z,0.46
2022-11-26T22:27:08.765Z,-0.08
2022-11-26T22:29:36.593Z,0.51
2022-11-26T22:32:04.593Z,-0.87
2022-11-26T22:34:32.644Z,0.76
2022-11-26T22:37:02.308Z,1.39
2022-11-26T22:39:31.723Z,1.36
2022-11-26T22:42:00.465Z,1.33
2022-11-26T22:44:31.718Z,0.95
2022-11-26T22:47:00.029Z,-1.51
2022-11-26T22:49:30.323Z,0.32
2022-11-26T22:51:58.128Z,0.25
2022-11-26T22:54:27.609Z,-2.65
2022-11-26T22:56:56.446Z,1.22
2022-11-26T22:59:24.252Z,-0.74
2022-11-26T23:01:55.999Z,1.12
2022-11-26T23:04:23.937Z,1.08
2022-11-26T23:06:51.703Z,1.05
2022-11-26T23:09:20.716Z,1.02
2022-11-26T23:11:50.842Z,-1.39
2022-11-26T23:14:18.836Z,-1.98
2022-11-26T23:16:46.853Z,-1.60
2022-11-26T23:19:16.136Z,0.28
2022-11-26T23:21:47.225Z,0.59
2022-11-26T23:24:15.415Z,0.84
2022-11-26T23:26:44.097Z,-0.11
2022-11-26T23:29:13.977Z,0.81
2022-11-26T23:31:44.764Z,0.33
2022-11-26T23:34:14.279Z,0.80
2022-11-26T23:36:42.156Z,-1.76
2022-11-26T23:39:13.201Z,0.73
2022-11-26T23:41:41.361Z,-1.04
2022-11-26T23:44:11.541Z,-1.69
2022-11-26T23:46:41.125Z,-1.84
2022-11-26T23:49:10.275Z,-0.38
2022-11-26T23:51:38.326Z,0.70
2022-11-26T23:54:07.055Z,-0.03
2022-11-26T23:56:36.151Z,-3.32
2022-11-26T23:59:06.652Z,-1.92
